Terminal Aerodrome Forecast
Issued by NWS Sterling, VA

Home | Current Version | Previous Version | Text Only | Print | Product List | Glossary On
Versions: 1 2 3 4 5 6 7 8 9 10 11 12 13 14 15 16 17 18 19 20 21 22 23 24
000
FTUS41 KLWX 291731
TAFDCA
TAF
KDCA 291731Z 2918/3018 29005KT P6SM SKC
     FM292200 23004KT P6SM SKC
     FM300100 17006KT P6SM SCT150
     FM300500 19008KT P6SM OVC100
     FM300700 20009KT P6SM -RA OVC045
     FM300800 20010KT P6SM OVC050
     FM301500 24010KT P6SM BKN050
     FM301700 27012G20KT P6SM SCT040=

USA.gov is the U.S. government's official web portal to all federal, state and local government web resources and services.